This is the latest recevied weather packets stored in our database for station/object W7JFO-3. If no packets are shown the sender has not sent any weather packets the latest 10 day(s).
| Time | Temp. | Humidity | Pressure | Rain* | Wind** | Luminosity | Snow |
|---|---|---|---|---|---|---|---|
| 1777762010 | 16.67° C | 41% | 1011.9 hPa | 0 mm | - | 269 W/m² | - |
| 1777761110 | 17.78° C | 39% | 1012.1 hPa | 0 mm | - | 701 W/m² | - |
| 1777760210 | 17.22° C | 39% | 1012 hPa | 0 mm | - | 160 W/m² | - |
| 1777759310 | 17.22° C | 37% | 1011.9 hPa | 0 mm | - | 244 W/m² | - |
| 1777758410 | 17.22° C | 39% | 1012.1 hPa | 0 mm | - | 788 W/m² | - |
| 1777757510 | 17.22° C | 39% | 1012.3 hPa | 0 mm | - | 248 W/m² | - |
| 1777756610 | 17.78° C | 38% | 1012.7 hPa | 0 mm | - | 970 W/m² | - |
| 1777755710 | 16.67° C | 44% | 1012.6 hPa | 0 mm | - | 390 W/m² | - |
| 1777754810 | 16.67° C | 43% | 1012.8 hPa | 0 mm | - | 318 W/m² | - |
| 1777753910 | 17.22° C | 42% | 1012.7 hPa | 0 mm | - | 534 W/m² | - |
| 1777753010 | 17.22° C | 42% | 1012.8 hPa | 0 mm | - | 364 W/m² | - |
| 1777752110 | 16.11° C | 42% | 1012.9 hPa | 0 mm | - | 898 W/m² | - |
| 1777751210 | 15.56° C | 42% | 1013.4 hPa | 0 mm | - | 838 W/m² | - |
| 1777750310 | 15.56° C | 42% | 1013.5 hPa | 0 mm | - | 580 W/m² | - |
| 1777749410 | 15.56° C | 44% | 1013.8 hPa | 0 mm | - | 715 W/m² | - |
| 1777748510 | 15° C | 49% | 1014.1 hPa | 0 mm | - | 879 W/m² | - |
| 1777747610 | 15° C | 47% | 1014 hPa | 0 mm | - | 849 W/m² | - |
| 1777746710 | 14.44° C | 48% | 1014.2 hPa | 0 mm | - | 847 W/m² | - |
| 1777745810 | 14.44° C | 47% | 1014.5 hPa | 0 mm | - | 833 W/m² | - |
| 1777744910 | 13.89° C | 51% | 1014.5 hPa | 0 mm | - | 772 W/m² | - |
| 1777744011 | 12.78° C | 49% | 1014.8 hPa | 0 mm | - | 798 W/m² | - |
| 1777743111 | 12.22° C | 52% | 1014.9 hPa | 0 mm | - | 768 W/m² | - |
| 1777742211 | 12.22° C | 49% | 1014.9 hPa | 0 mm | - | 548 W/m² | - |
| 1777741311 | 11.11° C | 53% | 1015.1 hPa | 0 mm | - | 751 W/m² | - |
| 1777740411 | 10.56° C | 55% | 1014.8 hPa | 0 mm | - | 722 W/m² | - |
* Rain latest hour (hover to see other rain measurements)
** Current wind speed in m/s (hover to see current wind gust speed)